Kinrikimaru — JL6545 — position and weather

sailwx.info

Track history (hours):
 
Tides and Currents Weather Stations Pressure Air Temp Water Temp Dewpoint Dewpoint Depression Visibility Wind Speed Wind Dir Waves Ship Positions

Kinrikimaru

Last reported at 2015-Jan-31 00:33 UTC. Time now 2015-Jan-31 00:50 UTC.
Position N 34°26' E 135°10'.

Length 76 m; draft 4 m.

Type: Cargo ship. MMSI: 431500615.

Date/timePositionNaut miles runAvg speedWind from/ knotsBaromVisibWave heightAir tempDewpointWater temp
2015-Jan-31 00:33N 34°26' E 135°10'1412.2
2015-Jan-30 23:26N 34°16' E 134°59'1112.5
2015-Jan-30 22:31N 34°05' E 135°00'  
2015-Jan-28 16:27N 33°57' E 134°59'1513.1
2015-Jan-28 15:16N 34°12' E 134°59'1312.6
2015-Jan-28 14:16N 34°24' E 135°03'1013.7
2015-Jan-28 13:33N 34°30' E 135°13'1111.4
2015-Jan-28 12:34N 34°35' E 135°25'1 0.6
2015-Jan-28 11:29N 34°35' E 135°26'0 0.0
2015-Jan-28 10:29N 34°35' E 135°26'0 0.0
2015-Jan-28 09:23N 34°35' E 135°26'0 0.0
2015-Jan-28 08:23N 34°35' E 135°26'0 0.0
2015-Jan-28 07:23N 34°35' E 135°26'0 0.0
2015-Jan-28 06:23N 34°35' E 135°26'0 0.5
2015-Jan-28 05:29N 34°35' E 135°25'0 0.0
2015-Jan-28 04:23N 34°35' E 135°25'0 0.0
2015-Jan-28 03:17N 34°35' E 135°25'0 0.0
2015-Jan-28 02:23N 34°35' E 135°25'0 0.0
2015-Jan-28 01:17N 34°35' E 135°25'0 0.0
2015-Jan-27 23:29N 34°35' E 135°25'0 0.0
2015-Jan-27 22:29N 34°35' E 135°25'0 0.0
2015-Jan-27 21:23N 34°35' E 135°25'0 0.0
2015-Jan-27 20:23N 34°35' E 135°25'0 0.0
2015-Jan-27 19:29N 34°35' E 135°25'0 0.0
2015-Jan-27 18:29N 34°35' E 135°25'5 5.8
2015-Jan-27 17:34N 34°36' E 135°19'1212.3
2015-Jan-27 16:33N 34°35' E 135°04'  
2015-Jan-22 07:30N 34°36' E 135°03'1111.3
2015-Jan-22 06:33N 34°36' E 135°16'8 8.0
2015-Jan-22 05:32N 34°35' E 135°26'0 0.0
2015-Jan-22 04:31N 34°35' E 135°26'0 0.0
2015-Jan-22 00:07N 34°35' E 135°26'0 0.0
2015-Jan-21 23:31N 34°35' E 135°26'0 0.5
2015-Jan-21 22:50N 34°35' E 135°25'0 0.0
2015-Jan-21 22:44N 34°35' E 135°25'0 0.0
2015-Jan-21 22:22N 34°35' E 135°25'0 0.0
2015-Jan-21 21:22N 34°35' E 135°25'0 0.0
2015-Jan-21 20:22N 34°35' E 135°25'0 0.0
2015-Jan-21 19:22N 34°35' E 135°25'0 0.0
2015-Jan-21 18:10N 34°35' E 135°25'0 0.0
2015-Jan-21 17:28N 34°35' E 135°25'0 0.0
2015-Jan-21 16:28N 34°35' E 135°25'0 0.0
2015-Jan-21 15:22N 34°35' E 135°25'0 0.0
2015-Jan-21 14:28N 34°35' E 135°25'0 0.0
2015-Jan-21 13:28N 34°35' E 135°25'0 0.0
2015-Jan-21 12:22N 34°35' E 135°25'0 0.0
2015-Jan-21 11:28N 34°35' E 135°25'0 0.0
2015-Jan-21 10:28N 34°35' E 135°25'5 5.6
2015-Jan-21 09:33N 34°34' E 135°19'1312.6
2015-Jan-21 08:32N 34°25' E 135°08'1211.6
2015-Jan-21 07:28N 34°15' E 134°59'1212.7
2015-Jan-21 06:32N 34°03' E 135°01'  
Track history (hours):
 
Tides and Currents Weather Stations Pressure Air Temp Water Temp Dewpoint Dewpoint Depression Visibility Wind Speed Wind Dir Waves Ship Positions

Kinrikimaru

Last reported at 2015-Jan-31 00:33 UTC. Time now 2015-Jan-31 00:50 UTC.
Position N 34°26' E 135°10'.

Length 76 m; draft 4 m.

Type: Cargo ship. MMSI: 431500615.

Date/timePositionNaut miles runAvg speedWind from/ knotsBaromVisibWave heightAir tempDewpointWater temp
2015-Jan-31 00:33N 34°26' E 135°10'1412.2
2015-Jan-30 23:26N 34°16' E 134°59'1112.5
2015-Jan-30 22:31N 34°05' E 135°00'  
2015-Jan-28 16:27N 33°57' E 134°59'1513.1
2015-Jan-28 15:16N 34°12' E 134°59'1312.6
2015-Jan-28 14:16N 34°24' E 135°03'1013.7
2015-Jan-28 13:33N 34°30' E 135°13'1111.4
2015-Jan-28 12:34N 34°35' E 135°25'1 0.6
2015-Jan-28 11:29N 34°35' E 135°26'0 0.0
2015-Jan-28 10:29N 34°35' E 135°26'0 0.0
2015-Jan-28 09:23N 34°35' E 135°26'0 0.0
2015-Jan-28 08:23N 34°35' E 135°26'0 0.0
2015-Jan-28 07:23N 34°35' E 135°26'0 0.0
2015-Jan-28 06:23N 34°35' E 135°26'0 0.5
2015-Jan-28 05:29N 34°35' E 135°25'0 0.0
2015-Jan-28 04:23N 34°35' E 135°25'0 0.0
2015-Jan-28 03:17N 34°35' E 135°25'0 0.0
2015-Jan-28 02:23N 34°35' E 135°25'0 0.0
2015-Jan-28 01:17N 34°35' E 135°25'0 0.0
2015-Jan-27 23:29N 34°35' E 135°25'0 0.0
2015-Jan-27 22:29N 34°35' E 135°25'0 0.0
2015-Jan-27 21:23N 34°35' E 135°25'0 0.0
2015-Jan-27 20:23N 34°35' E 135°25'0 0.0
2015-Jan-27 19:29N 34°35' E 135°25'0 0.0
2015-Jan-27 18:29N 34°35' E 135°25'5 5.8
2015-Jan-27 17:34N 34°36' E 135°19'1212.3
2015-Jan-27 16:33N 34°35' E 135°04'  
2015-Jan-22 07:30N 34°36' E 135°03'1111.3
2015-Jan-22 06:33N 34°36' E 135°16'8 8.0
2015-Jan-22 05:32N 34°35' E 135°26'0 0.0
2015-Jan-22 04:31N 34°35' E 135°26'0 0.0
2015-Jan-22 00:07N 34°35' E 135°26'0 0.0
2015-Jan-21 23:31N 34°35' E 135°26'0 0.5
2015-Jan-21 22:50N 34°35' E 135°25'0 0.0
2015-Jan-21 22:44N 34°35' E 135°25'0 0.0
2015-Jan-21 22:22N 34°35' E 135°25'0 0.0
2015-Jan-21 21:22N 34°35' E 135°25'0 0.0
2015-Jan-21 20:22N 34°35' E 135°25'0 0.0
2015-Jan-21 19:22N 34°35' E 135°25'0 0.0
2015-Jan-21 18:10N 34°35' E 135°25'0 0.0
2015-Jan-21 17:28N 34°35' E 135°25'0 0.0
2015-Jan-21 16:28N 34°35' E 135°25'0 0.0
2015-Jan-21 15:22N 34°35' E 135°25'0 0.0
2015-Jan-21 14:28N 34°35' E 135°25'0 0.0
2015-Jan-21 13:28N 34°35' E 135°25'0 0.0
2015-Jan-21 12:22N 34°35' E 135°25'0 0.0
2015-Jan-21 11:28N 34°35' E 135°25'0 0.0
2015-Jan-21 10:28N 34°35' E 135°25'5 5.6
2015-Jan-21 09:33N 34°34' E 135°19'1312.6
2015-Jan-21 08:32N 34°25' E 135°08'1211.6
2015-Jan-21 07:28N 34°15' E 134°59'1212.7
2015-Jan-21 06:32N 34°03' E 135°01'  

Dump ship's entire track history